Beaverton, Alabama
Current Conditions -  °F | °C
As of 8:55 PM on Sunday 21 Dec 2014 (Local Time) from KM40 Reporting Station
Haze Haze  
Wind Chill: 46°   Ceiling: Unl
Heat Index: 46°   Visibility: 6mi
Dew Point: 34°   Wind: 3mph
Humidity: 62%   Direction: 160°SSE
Pressure: 30.04"   Gusts: NA
Location:  33.93°N, 88.02°W
Report Text: KM40 220255Z AUTO 16003KT 6SM HZ FEW012 08/01 A3004 RMK AO2
Loading
Personal Weather Stations






























Interactive Weather Map New forecast layout! Learn more

10-Day Weather Forecast

Advertisements
Track Severe Weather on mobile